Time;durP1;ratioP1;P1;durP2;ratioP2;P2;SDS_P1;SDS_P2;PMS_P1;PMS_P2;Temp;Humidity;BMP_temperature;BMP_pressure;BME280_temperature;BME280_humidity;BME280_pressure;Samples;Min_cycle;Max_cycle;Signal;HPM_P1;HPM_P2
2021/12/19 00:01:26;;;;;;;5.73;4.97;;;8.00;99.90;;;;;;5038619;28;20206;-90
2021/12/19 00:04:01;;;;;;;5.73;2.80;;;8.00;99.90;;;;;;5039561;28;20517;-90
2021/12/19 00:09:13;;;;;;;3.70;3.17;;;8.00;99.90;;;;;;5035735;28;20205;-94
2021/12/19 00:11:41;;;;;;;5.23;3.20;;;8.00;99.90;;;;;;5034728;28;20213;-93
2021/12/19 00:14:08;;;;;;;4.87;3.37;;;8.00;99.90;;;;;;5034844;28;20537;-91
2021/12/19 00:16:35;;;;;;;4.43;3.10;;;8.10;99.90;;;;;;5034951;28;20209;-90
2021/12/19 00:19:02;;;;;;;5.23;3.60;;;8.10;99.90;;;;;;5034836;28;20202;-92
2021/12/19 00:21:30;;;;;;;4.50;3.10;;;8.10;99.90;;;;;;5034464;28;20614;-90
2021/12/19 00:23:57;;;;;;;2.57;2.37;;;8.20;99.90;;;;;;5035006;28;20540;-92
2021/12/19 00:26:24;;;;;;;3.77;2.87;;;8.10;99.90;;;;;;5035016;28;20194;-92
2021/12/19 00:28:53;;;;;;;3.33;2.63;;;8.10;99.90;;;;;;5034570;28;20209;-94
2021/12/19 00:31:21;;;;;;;2.87;2.60;;;8.10;99.90;;;;;;5034861;28;20558;-94
2021/12/19 00:33:48;;;;;;;3.83;2.90;;;8.10;99.90;;;;;;5032168;28;20243;-92
2021/12/19 00:36:15;;;;;;;5.33;3.83;;;8.10;99.90;;;;;;5014723;28;20207;-92
2021/12/19 00:38:42;;;;;;;5.20;4.60;;;8.20;99.90;;;;;;5015848;28;20219;-89
2021/12/19 00:41:10;;;;;;;7.03;4.53;;;8.20;99.90;;;;;;5015504;28;20195;-93
2021/12/19 00:43:44;;;;;;;5.60;4.83;;;8.20;99.90;;;;;;5019970;28;20943;-93
2021/12/19 00:46:15;;;;;;;8.37;4.20;;;8.20;99.90;;;;;;5037112;28;20224;-92
2021/12/19 00:48:44;;;;;;;8.27;4.40;;;8.20;99.90;;;;;;5034321;28;20265;-91
2021/12/19 00:51:15;;;;;;;9.03;4.20;;;8.20;99.90;;;;;;5034679;28;20240;-93
2021/12/19 00:53:44;;;;;;;4.80;3.77;;;8.30;99.90;;;;;;5034643;28;20265;-91
2021/12/19 00:56:11;;;;;;;3.60;3.20;;;8.30;99.90;;;;;;5034260;28;20625;-91
2021/12/19 00:58:38;;;;;;;3.67;2.70;;;8.30;99.90;;;;;;5032909;28;20791;-92
2021/12/19 01:01:08;;;;;;;2.63;2.43;;;8.30;99.90;;;;;;5030983;28;20638;-90
2021/12/19 01:03:37;;;;;;;4.10;2.77;;;8.30;99.90;;;;;;5033078;28;20877;-88
2021/12/19 01:06:04;;;;;;;4.00;3.50;;;8.30;99.90;;;;;;5031996;28;20698;-88
2021/12/19 01:08:32;;;;;;;5.67;4.07;;;8.30;99.90;;;;;;5014922;28;20206;-89
2021/12/19 01:10:59;;;;;;;6.30;4.00;;;8.20;99.90;;;;;;5014205;28;20630;-90
2021/12/19 01:13:25;;;;;;;4.63;3.83;;;8.20;99.90;;;;;;5030167;28;20566;-89
2021/12/19 01:15:53;;;;;;;6.60;4.40;;;8.20;99.90;;;;;;5032258;28;20219;-90
2021/12/19 01:18:20;;;;;;;5.43;3.87;;;8.30;99.90;;;;;;5014888;28;20322;-91
2021/12/19 01:20:49;;;;;;;4.53;3.27;;;8.30;99.90;;;;;;5014655;28;20619;-93
2021/12/19 01:23:16;;;;;;;4.10;2.20;;;8.40;99.90;;;;;;5018626;28;20214;-91
2021/12/19 01:25:43;;;;;;;2.43;2.03;;;8.40;99.90;;;;;;5028755;28;20218;-91
2021/12/19 01:28:10;;;;;;;2.90;2.60;;;8.40;99.90;;;;;;5013397;28;20769;-89
2021/12/19 01:30:37;;;;;;;14.10;5.90;;;8.30;99.90;;;;;;5014633;28;20269;-89
2021/12/19 01:33:04;;;;;;;9.07;3.80;;;8.30;99.90;;;;;;5017405;28;20250;-89
2021/12/19 01:35:31;;;;;;;5.23;4.00;;;8.30;99.90;;;;;;5029542;28;20232;-90
2021/12/19 01:38:00;;;;;;;9.87;4.30;;;8.30;99.90;;;;;;5029480;28;20207;-93
2021/12/19 01:40:27;;;;;;;7.83;4.23;;;8.30;99.90;;;;;;5013583;28;20725;-93
2021/12/19 01:42:56;;;;;;;9.53;4.43;;;8.30;99.90;;;;;;5013706;28;20524;-91
2021/12/19 01:45:26;;;;;;;4.90;4.10;;;8.30;99.90;;;;;;5024522;28;20227;-94
2021/12/19 01:47:53;;;;;;;4.43;3.10;;;8.30;99.90;;;;;;5032743;28;20199;-93
2021/12/19 01:50:21;;;;;;;2.83;2.30;;;8.30;99.90;;;;;;5034814;28;20215;-91
2021/12/19 01:52:49;;;;;;;4.17;2.37;;;8.40;99.90;;;;;;5034502;28;20198;-92
2021/12/19 01:55:18;;;;;;;3.73;2.60;;;8.40;99.90;;;;;;5033689;28;20207;-90
2021/12/19 01:57:46;;;;;;;2.80;2.23;;;8.40;99.90;;;;;;5033825;28;20206;-91
2021/12/19 02:00:21;;;;;;;4.37;2.97;;;8.30;99.90;;;;;;5034105;28;20211;-90
2021/12/19 02:02:50;;;;;;;2.77;2.47;;;8.30;99.90;;;;;;5040245;28;20221;-91
2021/12/19 02:05:17;;;;;;;2.97;2.60;;;8.40;99.90;;;;;;5034811;28;20215;-94
2021/12/19 02:07:46;;;;;;;2.77;2.47;;;8.40;99.90;;;;;;5033572;28;20884;-94
2021/12/19 02:10:14;;;;;;;4.60;2.80;;;8.40;99.90;;;;;;5033430;28;20198;-93
2021/12/19 02:12:43;;;;;;;3.07;2.67;;;8.40;99.90;;;;;;5013319;28;20517;-91
2021/12/19 02:15:11;;;;;;;3.90;2.70;;;8.40;99.90;;;;;;5014163;28;20672;-93
2021/12/19 02:17:38;;;;;;;4.70;3.37;;;8.30;99.90;;;;;;5013179;28;20203;-93
2021/12/19 02:20:11;;;;;;;5.13;3.67;;;8.30;99.90;;;;;;5028974;28;20550;-95
2021/12/19 02:22:38;;;;;;;4.70;3.70;;;8.40;99.90;;;;;;5033664;28;20196;-93
2021/12/19 02:25:06;;;;;;;5.63;4.00;;;8.40;99.90;;;;;;5032956;28;20230;-92
2021/12/19 02:27:33;;;;;;;7.00;4.13;;;8.50;99.90;;;;;;5032410;28;20214;-94
2021/12/19 02:30:01;;;;;;;4.17;3.53;;;8.50;99.90;;;;;;5032044;28;20202;-91
2021/12/19 02:32:29;;;;;;;4.13;3.03;;;8.50;99.90;;;;;;5028654;28;20569;-92
2021/12/19 02:35:00;;;;;;;4.33;3.67;;;8.50;99.90;;;;;;5032382;28;20269;-90
2021/12/19 02:40:32;;;;;;;3.80;3.40;;;8.40;99.90;;;;;;5032129;28;20205;-91
2021/12/19 02:48:31;;;;;;;2.83;1.43;;;8.40;99.90;;;;;;5032298;28;20221;-92
2021/12/19 02:50:59;;;;;;;1.93;1.53;;;8.40;99.90;;;;;;5032715;28;20229;-94
2021/12/19 02:53:33;;;;;;;4.10;1.40;;;8.40;99.90;;;;;;5027354;28;20203;-89
2021/12/19 02:56:01;;;;;;;2.10;1.40;;;8.40;99.90;;;;;;5011478;28;20253;-88
2021/12/19 02:58:28;;;;;;;2.43;1.60;;;8.40;99.90;;;;;;5027747;28;20206;-88
2021/12/19 03:00:55;;;;;;;3.07;1.90;;;8.40;99.90;;;;;;5036997;28;20206;-92
2021/12/19 03:03:22;;;;;;;3.10;1.73;;;8.30;99.90;;;;;;5017586;28;20205;-94
2021/12/19 03:05:49;;;;;;;1.93;1.30;;;8.40;99.90;;;;;;5013711;28;20221;-90
2021/12/19 03:08:17;;;;;;;3.17;1.63;;;8.40;99.90;;;;;;5013225;28;20485;-91
2021/12/19 03:13:36;;;;;;;2.37;1.50;;;8.30;99.90;;;;;;5019802;28;20579;-91
2021/12/19 03:18:48;;;;;;;2.37;1.57;;;8.20;99.90;;;;;;5031387;28;20209;-92
2021/12/19 03:21:17;;;;;;;3.07;2.17;;;8.30;99.90;;;;;;5019529;28;20208;-94
2021/12/19 03:23:44;;;;;;;3.00;2.50;;;8.30;99.90;;;;;;5026506;28;20256;-95
2021/12/19 03:26:13;;;;;;;2.67;1.80;;;8.30;99.90;;;;;;5032557;28;20240;-94
2021/12/19 03:28:40;;;;;;;3.80;1.70;;;8.30;99.90;;;;;;5031949;28;20199;-89
2021/12/19 03:31:07;;;;;;;1.70;1.60;;;8.30;99.90;;;;;;5029686;28;20207;-90
2021/12/19 03:33:35;;;;;;;6.40;2.97;;;8.20;99.90;;;;;;5032271;28;20230;-89
2021/12/19 03:36:02;;;;;;;2.80;1.87;;;8.20;99.90;;;;;;5032978;28;20288;-92
2021/12/19 03:38:29;;;;;;;1.70;1.40;;;8.30;99.90;;;;;;5031993;28;20222;-91
2021/12/19 03:41:11;;;;;;;1.90;1.47;;;8.30;99.90;;;;;;5036226;28;20187;-90
2021/12/19 03:43:39;;;;;;;2.73;2.47;;;8.20;99.90;;;;;;5022580;28;20253;-93
2021/12/19 03:46:06;;;;;;;2.73;2.27;;;8.30;99.90;;;;;;5015424;28;20231;-93
2021/12/19 03:48:34;;;;;;;6.10;3.03;;;8.20;99.90;;;;;;5016033;28;20196;-93
2021/12/19 03:51:01;;;;;;;6.23;2.50;;;8.20;99.90;;;;;;5026947;28;20214;-92
2021/12/19 03:53:27;;;;;;;3.37;2.00;;;8.30;99.90;;;;;;5035390;28;20213;-95
2021/12/19 03:55:54;;;;;;;3.77;2.77;;;8.30;99.90;;;;;;5035745;28;20194;-92
2021/12/19 03:58:22;;;;;;;6.33;3.57;;;8.30;99.90;;;;;;5035105;28;20214;-88
2021/12/19 04:00:54;;;;;;;2.33;2.10;;;8.30;99.90;;;;;;5033678;28;20203;-93
2021/12/19 04:03:21;;;;;;;2.80;2.30;;;8.20;99.90;;;;;;5013066;28;20258;-91
2021/12/19 04:05:49;;;;;;;4.97;2.23;;;8.20;99.90;;;;;;5015552;28;20597;-92
2021/12/19 04:08:18;;;;;;;5.47;3.13;;;8.20;99.90;;;;;;5016507;28;20218;-89
2021/12/19 04:10:46;;;;;;;6.37;3.60;;;8.20;99.90;;;;;;5031458;28;20263;-90
2021/12/19 04:13:13;;;;;;;9.53;3.53;;;8.20;99.90;;;;;;5034758;28;20202;-89
2021/12/19 04:15:40;;;;;;;5.17;2.70;;;8.20;99.90;;;;;;5035615;28;20194;-90
2021/12/19 04:18:09;;;;;;;1.90;1.50;;;8.20;99.90;;;;;;5035443;28;20207;-92
2021/12/19 04:20:36;;;;;;;2.40;1.77;;;8.20;99.90;;;;;;5035485;28;20210;-95
2021/12/19 04:23:03;;;;;;;4.60;1.93;;;8.20;99.90;;;;;;5034909;28;20489;-89
2021/12/19 04:25:30;;;;;;;4.40;1.90;;;8.10;99.90;;;;;;5032765;28;20230;-92
2021/12/19 04:27:57;;;;;;;2.67;1.80;;;8.10;99.90;;;;;;5037135;28;20206;-88
2021/12/19 04:30:25;;;;;;;3.10;1.60;;;8.20;99.90;;;;;;5037202;28;20202;-89
2021/12/19 04:33:01;;;;;;;2.83;1.60;;;8.10;99.90;;;;;;5036171;28;20646;-89
2021/12/19 04:35:34;;;;;;;5.97;1.83;;;8.10;99.90;;;;;;5034755;28;20186;-92
2021/12/19 04:38:40;;;;;;;2.40;1.40;;;8.10;99.90;;;;;;5034085;28;20677;-93
2021/12/19 04:41:25;;;;;;;1.03;0.93;;;8.10;99.90;;;;;;5034341;28;20398;-91
2021/12/19 04:44:29;;;;;;;1.30;0.93;;;8.10;99.90;;;;;;5034375;28;20268;-89
2021/12/19 04:55:38;;;;;;;2.00;0.90;;;8.00;99.90;;;;;;4997967;28;20726;-90
2021/12/19 04:58:20;;;;;;;3.33;1.50;;;8.00;99.90;;;;;;5030970;28;20230;-89
2021/12/19 05:00:57;;;;;;;2.00;1.40;;;8.00;99.90;;;;;;5030213;28;20291;-88
2021/12/19 05:03:33;;;;;;;4.53;1.87;;;8.00;99.90;;;;;;5029707;28;20202;-90
2021/12/19 05:06:07;;;;;;;2.13;1.20;;;8.00;99.90;;;;;;5033046;28;20222;-90
2021/12/19 05:14:11;;;;;;;2.07;1.30;;;7.90;99.90;;;;;;5012657;28;20659;-89
2021/12/19 05:16:41;;;;;;;1.33;1.23;;;7.90;99.90;;;;;;5011846;28;20480;-88
2021/12/19 05:19:19;;;;;;;2.83;1.50;;;7.90;99.90;;;;;;5012599;28;20234;-89
2021/12/19 05:21:46;;;;;;;5.37;1.80;;;7.90;99.90;;;;;;5011034;28;20195;-88
2021/12/19 05:24:43;;;;;;;1.63;1.40;;;7.90;99.90;;;;;;5010871;28;20269;-87
2021/12/19 05:27:12;;;;;;;2.63;1.70;;;7.90;99.90;;;;;;5031089;28;20253;-90
2021/12/19 05:29:40;;;;;;;3.87;1.83;;;7.90;99.90;;;;;;5032690;28;20190;-93
2021/12/19 05:32:08;;;;;;;2.53;1.20;;;7.90;99.90;;;;;;5031753;28;20252;-92
2021/12/19 05:34:35;;;;;;;1.80;1.10;;;8.00;99.90;;;;;;5030480;28;20198;-91
2021/12/19 05:45:20;;;;;;;1.27;0.80;;;8.00;99.90;;;;;;5023989;28;20214;-91
2021/12/19 05:47:49;;;;;;;4.63;1.23;;;8.00;99.90;;;;;;5034258;28;20214;-92
2021/12/19 05:50:17;;;;;;;2.57;1.00;;;8.00;99.90;;;;;;5034699;28;20206;-93
2021/12/19 05:52:45;;;;;;;1.67;1.50;;;8.10;99.90;;;;;;5033757;28;20190;-91
2021/12/19 05:55:14;;;;;;;6.30;1.90;;;8.00;99.90;;;;;;5032653;28;20198;-94
2021/12/19 05:57:42;;;;;;;6.70;2.00;;;8.10;99.90;;;;;;5038110;28;20205;-89
2021/12/19 06:00:12;;;;;;;8.83;1.77;;;8.10;99.90;;;;;;5028104;28;20214;-90
2021/12/19 06:02:40;;;;;;;2.17;0.90;;;8.10;99.90;;;;;;5031636;28;20222;-90
2021/12/19 06:05:08;;;;;;;2.70;0.77;;;8.10;99.90;;;;;;5032504;28;20229;-88
2021/12/19 06:07:35;;;;;;;1.93;0.63;;;8.10;99.90;;;;;;5032619;28;20230;-91
2021/12/19 06:10:04;;;;;;;1.80;0.80;;;8.10;99.90;;;;;;5033527;28;20578;-90
2021/12/19 06:12:33;;;;;;;2.50;1.10;;;8.10;99.90;;;;;;5032711;28;20561;-89
2021/12/19 06:15:00;;;;;;;2.63;0.90;;;8.10;99.90;;;;;;5033139;28;20499;-92
2021/12/19 06:17:26;;;;;;;1.43;0.70;;;8.10;99.90;;;;;;5033192;28;20194;-91
2021/12/19 06:19:53;;;;;;;1.53;0.80;;;8.00;99.90;;;;;;5032827;28;20207;-91
2021/12/19 06:22:20;;;;;;;3.57;0.93;;;8.00;99.90;;;;;;5033328;28;20214;-92
2021/12/19 06:24:47;;;;;;;2.77;1.00;;;8.00;99.90;;;;;;5031922;28;20868;-91
2021/12/19 06:27:14;;;;;;;3.50;1.40;;;8.00;99.90;;;;;;5031477;28;20210;-90
2021/12/19 06:29:42;;;;;;;2.93;1.10;;;8.00;99.90;;;;;;5033439;28;20209;-91
2021/12/19 06:32:11;;;;;;;2.73;1.33;;;8.00;99.90;;;;;;5027371;28;20329;-92
2021/12/19 06:34:38;;;;;;;4.90;1.53;;;8.00;99.90;;;;;;5013298;28;20214;-92
2021/12/19 06:37:09;;;;;;;3.43;0.97;;;8.00;99.90;;;;;;5013126;28;20206;-92
2021/12/19 06:39:36;;;;;;;2.00;0.77;;;8.00;99.90;;;;;;5013617;28;20321;-89
2021/12/19 06:42:04;;;;;;;3.57;0.90;;;8.00;99.90;;;;;;5012765;28;20199;-92
2021/12/19 06:44:31;;;;;;;4.10;0.83;;;8.00;99.90;;;;;;5026542;28;20217;-91
2021/12/19 06:46:59;;;;;;;4.03;0.70;;;8.00;99.90;;;;;;5032530;28;20253;-93
2021/12/19 06:49:27;;;;;;;0.50;0.40;;;8.00;99.90;;;;;;5032745;28;20210;-92
2021/12/19 06:51:53;;;;;;;3.93;0.80;;;7.90;99.90;;;;;;5032182;28;20202;-92
2021/12/19 06:54:21;;;;;;;2.33;0.80;;;8.00;99.90;;;;;;5032497;28;20202;-91
2021/12/19 06:56:48;;;;;;;4.47;1.00;;;8.00;99.90;;;;;;5032925;28;20591;-92
2021/12/19 06:59:15;;;;;;;3.50;1.37;;;8.00;99.90;;;;;;5032750;28;20202;-89
2021/12/19 07:01:41;;;;;;;1.97;1.10;;;8.00;99.90;;;;;;5026144;28;20502;-91
2021/12/19 07:04:10;;;;;;;4.93;1.30;;;8.00;99.90;;;;;;5012706;28;20207;-95
2021/12/19 07:06:36;;;;;;;4.10;1.30;;;8.10;99.90;;;;;;5009599;28;20227;-93
2021/12/19 07:09:04;;;;;;;5.40;1.30;;;8.10;99.90;;;;;;5012797;28;20203;-88
2021/12/19 07:11:31;;;;;;;5.73;1.40;;;8.00;99.90;;;;;;5032184;28;20780;-88
2021/12/19 07:13:57;;;;;;;6.00;1.20;;;8.00;99.90;;;;;;5033590;28;20206;-90
2021/12/19 07:16:24;;;;;;;2.60;0.90;;;8.00;99.90;;;;;;5036804;28;20191;-91
2021/12/19 07:18:51;;;;;;;3.90;0.60;;;8.00;99.90;;;;;;5036636;28;20206;-91
2021/12/19 07:21:20;;;;;;;3.90;1.03;;;8.00;99.90;;;;;;5033477;28;21086;-92
2021/12/19 07:23:46;;;;;;;1.90;1.03;;;8.00;99.90;;;;;;5013060;28;20206;-90
2021/12/19 07:26:13;;;;;;;2.90;0.93;;;8.10;99.90;;;;;;5019068;28;20223;-88
2021/12/19 07:28:44;;;;;;;3.60;1.20;;;8.10;99.90;;;;;;5025847;28;20202;-87
2021/12/19 07:31:11;;;;;;;4.20;1.60;;;8.00;99.90;;;;;;5035530;28;20199;-94
2021/12/19 07:33:37;;;;;;;2.07;0.80;;;8.10;99.90;;;;;;5034693;28;20246;-91
2021/12/19 07:36:05;;;;;;;3.73;0.90;;;8.00;99.90;;;;;;5033880;28;20210;-87
2021/12/19 07:38:40;;;;;;;2.83;0.60;;;8.00;99.90;;;;;;5035291;28;20199;-87
2021/12/19 07:41:07;;;;;;;4.33;1.07;;;8.00;99.90;;;;;;5035804;28;20267;-90
2021/12/19 07:43:34;;;;;;;3.07;0.70;;;8.00;99.90;;;;;;5034480;28;20592;-92
2021/12/19 07:46:01;;;;;;;2.77;0.70;;;7.90;99.90;;;;;;5035829;28;20235;-89
2021/12/19 07:48:27;;;;;;;3.43;0.70;;;7.90;99.90;;;;;;5035511;28;20202;-92
2021/12/19 07:50:54;;;;;;;4.40;0.60;;;7.90;99.90;;;;;;5034930;28;20210;-87
2021/12/19 07:53:21;;;;;;;2.73;0.60;;;7.80;99.90;;;;;;5035400;28;20207;-92
2021/12/19 07:55:50;;;;;;;2.43;0.70;;;7.80;99.90;;;;;;5035451;28;20204;-90
2021/12/19 07:58:17;;;;;;;2.10;0.53;;;7.80;99.90;;;;;;5035284;28;20195;-90
2021/12/19 08:00:44;;;;;;;0.40;0.40;;;7.80;99.90;;;;;;5034747;28;20206;-89
2021/12/19 08:03:11;;;;;;;1.60;0.57;;;7.80;99.90;;;;;;5034981;28;20217;-91
2021/12/19 08:05:37;;;;;;;1.33;0.50;;;7.90;99.90;;;;;;5035061;28;20230;-92
2021/12/19 08:08:05;;;;;;;2.53;0.57;;;7.90;99.90;;;;;;5034630;28;20226;-91
2021/12/19 08:13:18;;;;;;;1.57;0.80;;;7.80;99.90;;;;;;5035510;28;20181;-92
2021/12/19 08:15:45;;;;;;;4.30;0.73;;;7.90;99.90;;;;;;5034714;28;20211;-89
2021/12/19 08:18:12;;;;;;;2.60;0.70;;;7.90;99.90;;;;;;5035447;28;20221;-90
2021/12/19 08:20:39;;;;;;;2.13;1.30;;;7.90;99.90;;;;;;5034578;28;20211;-89
2021/12/19 08:23:06;;;;;;;2.47;0.90;;;7.90;99.90;;;;;;5034996;28;20601;-90
2021/12/19 08:25:33;;;;;;;2.60;0.97;;;8.00;99.90;;;;;;5033625;28;20501;-90
2021/12/19 08:35:00;;;;;;;4.00;1.70;;;8.00;99.90;;;;;;5026630;28;20232;-90
2021/12/19 08:37:27;;;;;;;7.17;2.50;;;8.10;99.90;;;;;;5031197;28;20209;-94
2021/12/19 08:39:54;;;;;;;12.03;2.93;;;8.10;99.90;;;;;;5012264;28;20215;-95
2021/12/19 08:42:21;;;;;;;18.53;4.60;;;8.10;99.90;;;;;;5015878;28;20282;-92
2021/12/19 08:44:48;;;;;;;11.57;4.07;;;8.10;99.90;;;;;;5015339;28;20207;-94
2021/12/19 08:47:15;;;;;;;9.77;3.70;;;8.10;99.90;;;;;;5014781;28;20613;-94
2021/12/19 08:49:42;;;;;;;15.03;4.83;;;8.10;99.90;;;;;;5020628;28;20275;-96
2021/12/19 08:52:12;;;;;;;9.83;3.80;;;8.10;99.90;;;;;;5017224;28;20878;-94
2021/12/19 08:54:39;;;;;;;12.97;4.13;;;8.10;99.90;;;;;;5015261;28;20610;-93
2021/12/19 08:57:06;;;;;;;11.93;4.47;;;8.10;99.90;;;;;;5015425;28;20199;-94
2021/12/19 08:59:34;;;;;;;18.70;5.40;;;8.10;99.90;;;;;;5014973;28;20214;-91
2021/12/19 09:02:01;;;;;;;16.97;4.70;;;8.10;99.90;;;;;;5014567;28;20217;-94
2021/12/19 09:04:29;;;;;;;13.00;4.77;;;8.10;99.90;;;;;;5027849;28;20211;-95
2021/12/19 09:06:56;;;;;;;11.57;4.83;;;8.10;99.90;;;;;;5034794;28;20222;-94
2021/12/19 09:09:25;;;;;;;12.90;4.60;;;8.10;99.90;;;;;;5034260;28;20610;-91
2021/12/19 09:11:52;;;;;;;15.97;5.00;;;8.20;99.90;;;;;;5034850;28;20206;-94
2021/12/19 09:14:19;;;;;;;10.97;4.50;;;8.20;99.90;;;;;;5034988;28;20238;-94
2021/12/19 09:16:46;;;;;;;14.10;4.90;;;8.20;99.90;;;;;;5034394;28;20293;-93
2021/12/19 09:19:14;;;;;;;11.37;3.67;;;8.30;99.90;;;;;;5034553;28;20209;-91
2021/12/19 09:21:41;;;;;;;8.97;3.80;;;8.20;99.90;;;;;;5034327;28;20519;-90
2021/12/19 09:24:08;;;;;;;16.40;3.67;;;8.20;99.90;;;;;;5034171;28;20202;-93
2021/12/19 09:26:37;;;;;;;10.23;3.77;;;8.30;99.90;;;;;;5033838;28;20532;-94
2021/12/19 09:29:04;;;;;;;10.37;4.03;;;8.20;99.90;;;;;;5034049;28;20240;-93
2021/12/19 09:31:31;;;;;;;8.87;3.40;;;8.20;99.90;;;;;;5033619;28;20514;-94
2021/12/19 09:33:58;;;;;;;7.57;3.03;;;8.20;99.90;;;;;;5033505;28;20654;-92
2021/12/19 09:36:25;;;;;;;9.40;3.07;;;8.30;99.90;;;;;;5032684;28;20206;-89
2021/12/19 09:38:52;;;;;;;10.70;2.93;;;8.20;99.90;;;;;;5033454;28;20515;-92
2021/12/19 09:41:28;;;;;;;8.03;2.80;;;8.30;99.90;;;;;;5033535;28;20199;-90
2021/12/19 09:43:58;;;;;;;14.23;3.10;;;8.30;99.90;;;;;;5034156;28;20230;-88
2021/12/19 09:46:31;;;;;;;6.80;2.30;;;8.30;99.90;;;;;;5013780;28;20240;-89
2021/12/19 09:48:58;;;;;;;13.17;2.83;;;8.30;99.90;;;;;;5023072;28;20218;-89
2021/12/19 09:51:25;;;;;;;9.80;3.00;;;8.30;99.90;;;;;;5033328;28;20207;-92
2021/12/19 09:53:53;;;;;;;10.47;3.30;;;8.30;99.90;;;;;;5034227;28;20202;-91
2021/12/19 09:56:20;;;;;;;9.43;2.93;;;8.40;99.90;;;;;;5028754;28;20875;-88
2021/12/19 09:58:47;;;;;;;10.10;4.00;;;8.40;99.90;;;;;;5013331;28;20209;-89
2021/12/19 10:01:16;;;;;;;11.80;3.73;;;8.40;99.90;;;;;;5023123;28;20256;-91
2021/12/19 10:03:43;;;;;;;11.33;3.77;;;8.40;99.90;;;;;;5034049;28;20296;-91
2021/12/19 10:06:14;;;;;;;9.30;4.00;;;8.40;99.90;;;;;;5033769;28;20493;-91
2021/12/19 10:08:42;;;;;;;11.10;3.97;;;8.50;99.90;;;;;;5033479;28;20212;-93
2021/12/19 10:11:31;;;;;;;9.37;3.90;;;8.50;99.90;;;;;;5010817;28;20290;-89
2021/12/19 10:13:58;;;;;;;8.50;3.60;;;8.50;99.90;;;;;;5024281;28;20215;-91
2021/12/19 10:16:31;;;;;;;10.07;3.90;;;8.40;99.90;;;;;;5033201;28;20195;-88
2021/12/19 10:19:00;;;;;;;9.27;3.47;;;8.50;99.90;;;;;;5032016;28;20225;-92
2021/12/19 10:21:28;;;;;;;18.83;3.50;;;8.50;99.90;;;;;;5034897;28;20272;-87
2021/12/19 10:24:00;;;;;;;10.33;2.73;;;8.50;99.90;;;;;;5035687;28;20211;-89
2021/12/19 10:26:40;;;;;;;9.07;3.37;;;8.50;99.90;;;;;;5033211;28;20218;-91
2021/12/19 10:29:07;;;;;;;7.87;2.60;;;8.40;99.90;;;;;;5032659;28;20217;-90
2021/12/19 10:31:35;;;;;;;7.63;2.40;;;8.40;99.90;;;;;;5032405;28;20198;-90
2021/12/19 10:34:18;;;;;;;6.13;1.90;;;8.40;99.90;;;;;;5032282;28;20656;-92
2021/12/19 10:36:45;;;;;;;4.77;2.07;;;8.50;99.90;;;;;;5013237;28;20218;-92
2021/12/19 10:39:15;;;;;;;5.00;1.73;;;8.50;99.90;;;;;;5014791;28;20234;-92
2021/12/19 10:41:43;;;;;;;5.13;1.80;;;8.40;99.90;;;;;;5032701;28;20210;-93
2021/12/19 10:45:29;;;;;;;6.00;1.37;;;8.40;99.90;;;;;;5032454;28;20210;-92
2021/12/19 10:47:20;;;;;;;5.50;1.20;;;8.30;99.90;;;;;;5032088;28;20325;-93
2021/12/19 10:49:47;;;;;;;3.10;1.20;;;8.30;99.90;;;;;;5032755;28;20183;-93
2021/12/19 10:52:14;;;;;;;7.43;1.50;;;8.20;99.90;;;;;;5032095;28;20610;-92
2021/12/19 10:54:57;;;;;;;5.83;1.47;;;8.20;99.90;;;;;;5032211;28;20197;-91
2021/12/19 10:57:32;;;;;;;4.83;1.20;;;8.30;99.90;;;;;;5031881;28;20609;-93
2021/12/19 10:59:59;;;;;;;6.43;1.33;;;8.30;99.90;;;;;;5032686;28;20209;-94
2021/12/19 11:02:37;;;;;;;4.30;1.37;;;8.30;99.90;;;;;;5026242;28;20199;-92
2021/12/19 11:05:05;;;;;;;6.00;1.80;;;8.30;99.90;;;;;;5012705;28;20441;-89
2021/12/19 11:07:34;;;;;;;5.17;2.37;;;8.20;99.90;;;;;;5017081;28;20233;-91
2021/12/19 11:10:00;;;;;;;4.40;1.37;;;8.20;99.90;;;;;;5031785;28;20213;-91
2021/12/19 11:12:27;;;;;;;9.67;1.90;;;8.30;99.90;;;;;;5032898;28;20207;-91
2021/12/19 11:14:56;;;;;;;5.30;1.97;;;8.30;99.90;;;;;;5033987;28;20434;-91
2021/12/19 11:17:26;;;;;;;5.13;1.67;;;8.40;99.90;;;;;;5031976;28;20214;-91
2021/12/19 11:19:57;;;;;;;8.37;2.47;;;8.40;99.90;;;;;;5032715;28;20210;-91
2021/12/19 11:22:26;;;;;;;12.40;1.93;;;8.40;99.90;;;;;;5032015;28;20211;-90
2021/12/19 11:24:55;;;;;;;9.63;2.70;;;8.40;99.90;;;;;;5032430;28;20214;-91
2021/12/19 11:27:22;;;;;;;4.10;1.70;;;8.40;99.90;;;;;;5031221;28;20230;-90
2021/12/19 11:29:51;;;;;;;9.93;2.50;;;8.40;99.90;;;;;;5031852;28;20218;-88
2021/12/19 11:32:20;;;;;;;12.17;2.50;;;8.40;99.90;;;;;;5031404;28;20558;-91
2021/12/19 11:35:01;;;;;;;9.97;2.17;;;8.40;99.90;;;;;;5031903;28;20269;-91
2021/12/19 11:37:33;;;;;;;9.83;2.73;;;8.50;99.90;;;;;;5031932;28;20226;-93
2021/12/19 11:40:01;;;;;;;10.77;2.97;;;8.50;99.90;;;;;;5013351;28;20192;-91
2021/12/19 11:42:32;;;;;;;8.80;2.60;;;8.50;99.90;;;;;;5010125;28;20619;-89
2021/12/19 11:45:17;;;;;;;10.97;3.03;;;8.50;99.90;;;;;;5019748;28;20256;-88
2021/12/19 11:47:49;;;;;;;7.50;2.87;;;8.50;99.90;;;;;;5032047;28;20312;-88
2021/12/19 11:50:23;;;;;;;11.37;2.83;;;8.50;99.90;;;;;;5034333;28;20287;-87
2021/12/19 11:52:52;;;;;;;14.53;3.30;;;8.50;99.90;;;;;;5038393;28;20215;-86
2021/12/19 11:55:25;;;;;;;8.30;3.10;;;8.50;99.90;;;;;;5034509;28;20230;-86
2021/12/19 11:58:28;;;;;;;15.63;4.10;;;8.50;99.90;;;;;;5031906;28;20205;-86
2021/12/19 12:01:08;;;;;;;6.97;2.53;;;8.60;99.90;;;;;;5033797;28;20238;-88
2021/12/19 12:03:42;;;;;;;9.23;3.00;;;8.60;99.90;;;;;;5015449;28;20211;-88
2021/12/19 12:06:26;;;;;;;7.70;3.27;;;8.60;99.90;;;;;;5015942;28;20214;-92
2021/12/19 12:09:25;;;;;;;12.80;4.30;;;8.60;99.90;;;;;;5021640;28;20210;-92
2021/12/19 12:12:19;;;;;;;7.63;2.73;;;8.60;99.90;;;;;;4992291;28;20503;-92
2021/12/19 12:14:56;;;;;;;11.00;2.60;;;8.60;99.90;;;;;;5013597;28;20200;-91
2021/12/19 12:17:32;;;;;;;7.77;2.93;;;8.60;99.90;;;;;;5018811;28;20233;-92
2021/12/19 12:20:01;;;;;;;6.60;2.40;;;8.60;99.90;;;;;;5035091;28;20245;-92
2021/12/19 12:22:47;;;;;;;5.07;2.30;;;8.60;99.90;;;;;;5034304;28;20929;-94
2021/12/19 12:25:18;;;;;;;10.03;2.63;;;8.60;99.90;;;;;;5016536;28;20215;-92
2021/12/19 12:27:48;;;;;;;9.87;4.23;;;8.60;99.90;;;;;;5016128;28;20236;-92
2021/12/19 12:30:17;;;;;;;9.70;2.83;;;8.60;99.90;;;;;;5016479;28;20246;-92
2021/12/19 12:32:44;;;;;;;5.73;1.90;;;8.70;99.90;;;;;;5015192;28;20211;-92
2021/12/19 12:35:13;;;;;;;8.93;1.67;;;8.70;99.90;;;;;;5022742;28;20234;-92
2021/12/19 12:37:44;;;;;;;5.37;1.47;;;8.70;99.90;;;;;;5035133;28;20207;-91
2021/12/19 12:40:28;;;;;;;3.80;1.53;;;8.80;99.90;;;;;;5035438;28;20260;-92
2021/12/19 12:43:05;;;;;;;6.73;1.80;;;8.70;99.90;;;;;;5035066;28;20570;-92
2021/12/19 12:46:06;;;;;;;8.10;1.83;;;8.80;99.90;;;;;;5035358;28;20492;-91
2021/12/19 12:48:40;;;;;;;5.60;1.03;;;8.80;99.90;;;;;;5035183;28;20283;-93
2021/12/19 12:51:10;;;;;;;3.37;0.90;;;8.80;99.90;;;;;;5035936;28;20207;-93
2021/12/19 12:53:41;;;;;;;2.87;1.00;;;8.80;99.90;;;;;;5018311;28;20199;-92
2021/12/19 12:56:14;;;;;;;4.50;1.27;;;8.80;99.90;;;;;;5035972;28;20214;-92
2021/12/19 12:58:45;;;;;;;4.23;1.10;;;8.70;99.90;;;;;;5035687;28;20269;-89
2021/12/19 13:01:25;;;;;;;2.27;1.33;;;8.80;99.90;;;;;;5036082;28;20233;-91
2021/12/19 13:04:01;;;;;;;4.70;1.40;;;8.80;99.90;;;;;;5036993;28;20198;-88
2021/12/19 13:06:49;;;;;;;4.00;1.30;;;8.80;99.90;;;;;;5036802;28;20213;-91
2021/12/19 13:09:20;;;;;;;5.23;1.33;;;8.70;99.90;;;;;;5037656;28;20198;-89
2021/12/19 13:11:50;;;;;;;6.67;2.00;;;8.70;99.90;;;;;;5033505;28;20198;-89
2021/12/19 13:14:21;;;;;;;3.27;1.30;;;8.70;99.90;;;;;;5041145;28;20256;-88
2021/12/19 13:16:51;;;;;;;6.37;3.20;;;8.70;99.90;;;;;;5021190;28;20213;-88
2021/12/19 13:19:35;;;;;;;13.60;8.63;;;8.70;99.90;;;;;;5020835;28;20287;-91
2021/12/19 13:22:02;;;;;;;5.47;1.80;;;8.70;99.90;;;;;;5024006;28;20222;-89
2021/12/19 13:24:32;;;;;;;8.33;2.80;;;8.70;99.90;;;;;;5018838;28;20203;-87
2021/12/19 13:27:09;;;;;;;5.60;2.13;;;8.70;99.90;;;;;;5011859;28;20219;-86
2021/12/19 13:29:37;;;;;;;6.07;2.20;;;8.70;99.90;;;;;;5010263;28;20199;-88
2021/12/19 13:32:22;;;;;;;3.87;2.10;;;8.70;99.90;;;;;;5011011;28;20211;-89
2021/12/19 13:34:50;;;;;;;6.33;2.17;;;8.70;99.90;;;;;;5030374;28;20246;-88
2021/12/19 13:37:17;;;;;;;8.83;2.93;;;8.70;99.90;;;;;;5032658;28;20203;-89
2021/12/19 13:39:49;;;;;;;6.23;2.50;;;8.70;99.90;;;;;;5033181;28;20210;-89
2021/12/19 13:42:16;;;;;;;6.60;2.20;;;8.60;99.90;;;;;;5033230;28;20213;-88
2021/12/19 13:44:43;;;;;;;10.20;2.17;;;8.70;99.90;;;;;;5032897;28;20203;-90
2021/12/19 13:47:12;;;;;;;6.53;2.53;;;8.70;99.90;;;;;;5033272;28;20314;-89
2021/12/19 13:49:40;;;;;;;20.50;12.63;;;8.70;99.90;;;;;;5032421;28;20210;-90
2021/12/19 13:52:08;;;;;;;13.30;8.37;;;8.70;99.90;;;;;;5032987;28;20213;-91
2021/12/19 13:54:38;;;;;;;13.87;4.83;;;8.70;99.90;;;;;;5032991;28;20523;-87
2021/12/19 13:57:19;;;;;;;10.63;3.43;;;8.70;99.90;;;;;;5045216;23;20233;-87
2021/12/19 13:59:45;;;;;;;10.33;3.70;;;8.70;99.90;;;;;;5049347;28;20214;-88